| time (UTC) | temp F | wind direction | speed knots | gust knots | rain 1hr in | rain 24hr in | rain mn in | humidity % | barometer mb |
| 20260906210056 | 70 | 68 | 0.9 | 3.5 | 0.00 | 0.00 | 0.00 | 75 | 1018.9 |
| 20260906204552 | 69 | 72 | 4.3 | 7.0 | 0.00 | 0.00 | 0.00 | 74 | 1018.8 |
| 20260906203033 | 70 | 75 | 4.3 | 7.8 | 0.00 | 0.00 | 0.00 | 74 | 1018.7 |
| 20260906201532 | 70 | 62 | 1.7 | 7.0 | 0.00 | 0.00 | 0.00 | 77 | 1018.8 |
| 20260906200014 | 70 | 72 | 2.6 | 7.8 | 0.00 | 0.00 | 0.00 | 75 | 1018.9 |
| 20260906194512 | 70 | 69 | 3.5 | 7.0 | 0.00 | 0.00 | 0.00 | 76 | 1018.9 |
| 20260906193057 | 70 | 32 | 0.9 | 6.1 | 0.00 | 0.00 | 0.00 | 76 | 1019.0 |
| 20260906191553 | 69 | 79 | 5.2 | 8.7 | 0.00 | 0.00 | 0.00 | 75 | 1019.1 |
| 20260906190036 | 69 | 70 | 4.3 | 10.4 | 0.00 | 0.00 | 0.00 | 77 | 1019.0 |
| 20260906184534 | 69 | 69 | 6.1 | 10.4 | 0.00 | 0.00 | 0.00 | 76 | 1019.1 |
| 20260906183028 | 69 | 86 | 3.5 | 11.3 | 0.00 | 0.00 | 0.00 | 75 | 1019.1 |
| 20260906181521 | 69 | 61 | 2.6 | 7.8 | 0.00 | 0.00 | 0.00 | 76 | 1019.1 |
| 20260906180019 | 69 | 56 | 0.9 | 9.6 | 0.00 | 0.00 | 0.00 | 79 | 1019.1 |
| 20260906174523 | 69 | 38 | 1.7 | 6.1 | 0.00 | 0.00 | 0.00 | 77 | 1019.2 |
| 20260906173018 | 69 | 68 | 3.5 | 7.8 | 0.00 | 0.00 | 0.00 | 77 | 1019.3 |
| 20260906171518 | 69 | 70 | 6.1 | 10.4 | 0.00 | 0.00 | 0.00 | 77 | 1019.3 |
| 20260906170025 | 70 | 68 | 1.7 | 7.8 | 0.00 | 0.00 | 0.00 | 78 | 1019.2 |
| 20260906164515 | 70 | 108 | 4.3 | 11.3 | 0.00 | 0.00 | 0.00 | 78 | 1019.1 |
| 20260906163058 | 70 | 359 | 2.6 | 8.7 | 0.00 | 0.00 | 0.00 | 78 | 1019.1 |
| 20260906161556 | 69 | 98 | 4.3 | 10.4 | 0.00 | 0.00 | 0.00 | 79 | 1019.1 |
| 20260906160044 | 69 | 90 | 3.5 | 10.4 | 0.00 | 0.00 | 0.00 | 79 | 1019.2 |
| 20260906154546 | 69 | 60 | 3.5 | 7.0 | 0.00 | 0.00 | 0.00 | 80 | 1019.0 |
| 20260906153028 | 69 | 60 | 4.3 | 10.4 | 0.00 | 0.00 | 0.00 | 81 | 1018.9 |
| 20260906151523 | 70 | 10 | 3.5 | 9.6 | 0.00 | 0.00 | 0.00 | 80 | 1018.8 |
| 20260906150030 | 70 | 51 | 3.5 | 9.6 | 0.00 | 0.00 | 0.00 | 78 | 1018.8 |
| 20260906144526 | 69 | 75 | 4.3 | 8.7 | 0.00 | 0.00 | 0.00 | 79 | 1018.7 |
| 20260906143018 | 69 | 92 | 2.6 | 7.8 | 0.00 | 0.00 | 0.00 | 80 | 1018.9 |
| 20260906141519 | 69 | 54 | 2.6 | 8.7 | 0.00 | 0.00 | 0.00 | 80 | 1018.6 |
| 20260906140020 | 70 | 304 | 3.5 | 7.8 | 0.00 | 0.00 | 0.00 | 78 | 1018.3 |
| 20260906134533 | 68 | 1 | 2.6 | 7.8 | 0.00 | 0.00 | 0.00 | 83 | 1018.2 |
| 20260906133008 | 67 | 56 | 2.6 | 8.7 | 0.00 | 0.00 | 0.00 | 84 | 1018.1 |
| 20260906131507 | 68 | 48 | 3.5 | 9.6 | 0.00 | 0.00 | 0.00 | 85 | 1018.1 |
| 20260906130048 | 67 | 79 | 2.6 | 7.8 | 0.00 | 0.00 | 0.00 | 85 | 1017.9 |
| 20260906124546 | 68 | 68 | 1.7 | 7.0 | 0.00 | 0.00 | 0.00 | 85 | 1017.8 |
| 20260906123031 | 69 | 20 | 0.0 | 0.9 | 0.00 | 0.00 | 0.00 | 85 | 1017.7 |
| 20260906121528 | 69 | 25 | 0.0 | 0.9 | 0.00 | 0.00 | 0.00 | 87 | 1017.6 |
| 20260906120005 | 68 | 24 | 0.0 | 0.9 | 0.00 | 0.00 | 0.00 | 90 | 1017.4 |
| 20260906114508 | 67 | 20 | 0.0 | 0.9 | 0.00 | 0.00 | 0.00 | 91 | 1017.1 |
| 20260906113050 | 67 | 15 | 0.0 | 0.0 | 0.00 | 0.00 | 0.00 | 91 | 1017.0 |
| 20260906111544 | 67 | 13 | 0.0 | 0.0 | 0.00 | 0.00 | 0.00 | 91 | 1016.8 |
| 20260906110031 | 66 | 13 | 0.0 | 0.0 | 0.00 | 0.00 | 0.00 | 91 | 1016.7 |
| 20260906104533 | 67 | 16 | 0.0 | 0.0 | 0.00 | 0.00 | 0.00 | 90 | 1016.6 |
| 20260906103003 | 67 | 16 | 0.0 | 0.0 | 0.00 | 0.00 | 0.00 | 90 | 1016.4 |
| 20260906101502 | 67 | 5 | 0.0 | 0.0 | 0.00 | 0.00 | 0.00 | 90 | 1016.2 |
| 20260906100043 | 67 | 4 | 0.0 | 0.0 | 0.00 | 0.00 | 0.00 | 89 | 1016.0 |
| 20260906094540 | 67 | 1 | 0.0 | 0.0 | 0.00 | 0.00 | 0.00 | 89 | 1015.9 |
| 20260906093021 | 67 | 5 | 0.0 | 0.0 | 0.00 | 0.00 | 0.00 | 89 | 1015.8 |
| 20260906091520 | 67 | 360 | 0.0 | 0.0 | 0.00 | 0.00 | 0.00 | 89 | 1015.5 |
| 20260906090001 | 67 | 360 | 0.0 | 0.0 | 0.00 | 0.00 | 0.00 | 88 | 1015.5 |
| 20260906084558 | 67 | 4 | 0.0 | 0.0 | 0.00 | 0.00 | 0.00 | 88 | 1015.3 |
| 20260906083058 | 67 | 4 | 0.0 | 0.0 | 0.00 | 0.00 | 0.00 | 87 | 1015.1 |
| 20260906081538 | 68 | 1 | 0.0 | 0.0 | 0.00 | 0.00 | 0.00 | 86 | 1015.0 |
| 20260906080039 | 68 | 4 | 0.0 | 0.0 | 0.00 | 0.00 | 0.00 | 86 | 1015.0 |
| 20260906074520 | 68 | 1 | 0.0 | 0.0 | 0.00 | 0.00 | 0.00 | 86 | 1015.0 |
| 20260906073022 | 68 | 359 | 0.0 | 0.0 | 0.00 | 0.00 | 0.00 | 86 | 1014.9 |
| 20260906071600 | 68 | 6 | 0.0 | 0.0 | 0.00 | 0.00 | 0.00 | 85 | 1014.9 |
| 20260906070100 | 68 | 7 | 0.0 | 0.0 | 0.00 | 0.00 | 0.00 | 84 | 1014.9 |
| 20260906064541 | 68 | 7 | 0.0 | 0.0 | 0.00 | 0.00 | 0.00 | 83 | 1014.9 |
| 20260906063041 | 68 | 8 | 0.0 | 0.0 | 0.00 | 0.00 | 0.00 | 83 | 1015.0 |
| 20260906061523 | 69 | 7 | 0.0 | 0.0 | 0.00 | 0.00 | 0.00 | 84 | 1015.0 |
| 20260906060022 | 69 | 4 | 0.0 | 0.0 | 0.00 | 0.00 | 0.00 | 84 | 1015.0 |
| 20260906054504 | 69 | 6 | 0.0 | 0.0 | 0.00 | 0.00 | 0.00 | 85 | 1015.0 |
| 20260906053004 | 69 | 4 | 0.0 | 0.0 | 0.00 | 0.00 | 0.00 | 85 | 1015.0 |
| 20260906051553 | 69 | 9 | 0.0 | 0.0 | 0.00 | 0.00 | 0.00 | 85 | 1014.9 |
| 20260906050112 | 69 | 3 | 0.0 | 0.0 | 0.00 | 0.00 | 0.00 | 85 | 1015.0 |
| 20260906044550 | 69 | 1 | 0.0 | 0.0 | 0.00 | 0.00 | 0.00 | 87 | 1014.9 |
| 20260906043050 | 68 | 1 | 0.0 | 0.0 | 0.00 | 0.00 | 0.00 | 89 | 1014.8 |
| 20260906041548 | 67 | 4 | 0.0 | 0.0 | 0.00 | 0.00 | 0.00 | 93 | 1014.8 |
| 20260906040048 | 66 | 8 | 0.0 | 0.0 | 0.00 | 0.00 | 0.00 | 93 | 1014.7 |
| 20260906034546 | 66 | 8 | 0.0 | 0.0 | 0.00 | 0.00 | 0.00 | 92 | 1014.7 |
| 20260906033055 | 66 | 8 | 0.0 | 0.0 | 0.00 | 0.00 | 0.00 | 92 | 1014.6 |
| 20260906031531 | 66 | 8 | 0.0 | 0.0 | 0.00 | 0.00 | 0.00 | 90 | 1014.6 |
| 20260906030025 | 66 | 8 | 0.0 | 0.0 | 0.00 | 0.00 | 0.00 | 90 | 1014.5 |
| 20260906024507 | 67 | 8 | 0.0 | 0.0 | 0.00 | 0.00 | 0.00 | 89 | 1014.5 |
| 20260906023017 | 67 | 8 | 0.0 | 0.0 | 0.00 | 0.00 | 0.00 | 89 | 1014.4 |
| 20260906021552 | 67 | 8 | 0.0 | 0.0 | 0.00 | 0.00 | 0.00 | 88 | 1014.4 |
| 20260906020053 | 67 | 8 | 0.0 | 0.0 | 0.00 | 0.00 | 0.00 | 88 | 1014.4 |
| 20260906014541 | 67 | 8 | 0.0 | 0.0 | 0.00 | 0.00 | 0.00 | 87 | 1014.2 |
| 20260906013031 | 68 | 8 | 0.0 | 0.0 | 0.00 | 0.00 | 0.00 | 87 | 1014.1 |
| 20260906011520 | 68 | 8 | 0.0 | 0.0 | 0.00 | 0.00 | 0.00 | 86 | 1014.1 |
| 20260906010018 | 69 | 9 | 0.0 | 0.0 | 0.00 | 0.00 | 0.00 | 85 | 1014.2 |
| 20260906004517 | 69 | 9 | 0.0 | 0.0 | 0.00 | 0.00 | 0.00 | 85 | 1014.1 |
| 20260906003017 | 69 | 9 | 0.0 | 0.0 | 0.00 | 0.00 | 0.00 | 84 | 1013.9 |
| 20260906001516 | 69 | 9 | 0.0 | 0.0 | 0.00 | 0.00 | 0.00 | 84 | 1014.0 |
| 20260906000016 | 70 | 12 | 0.0 | 0.0 | 0.00 | 0.00 | 0.00 | 83 | 1014.0 |
| 20260905234515 | 70 | 12 | 0.0 | 0.0 | 0.00 | 0.00 | 0.00 | 82 | 1014.0 |
| 20260905233017 | 71 | 12 | 0.0 | 0.0 | 0.00 | 0.00 | 0.00 | 80 | 1014.0 |
| 20260905231515 | 72 | 12 | 0.0 | 0.0 | 0.00 | 0.00 | 0.00 | 79 | 1014.1 |
| 20260905230014 | 73 | 12 | 0.0 | 0.0 | 0.00 | 0.00 | 0.00 | 76 | 1014.0 |
| 20260905224512 | 75 | 12 | 0.0 | 2.6 | 0.00 | 0.00 | 0.00 | 71 | 1014.1 |
| 20260905223011 | 76 | 28 | 0.0 | 3.5 | 0.00 | 0.00 | 0.00 | 71 | 1014.1 |
| 20260905221513 | 76 | 29 | 0.0 | 2.6 | 0.00 | 0.00 | 0.00 | 71 | 1014.1 |
| 20260905220009 | 76 | 313 | 0.0 | 3.5 | 0.00 | 0.00 | 0.00 | 71 | 1013.9 |
| 20260905214508 | 77 | 359 | 0.0 | 2.6 | 0.00 | 0.00 | 0.00 | 70 | 1013.7 |
| 20260905213006 | 76 | 313 | 0.0 | 2.6 | 0.00 | 0.00 | 0.00 | 71 | 1013.8 |
| 20260905211506 | 76 | 320 | 0.9 | 3.5 | 0.00 | 0.00 | 0.00 | 71 | 1013.7 |